Hlavní strana
METAR-TAF:

METAR-TAF

Letiště :

Joensuu, Finsko

zeměpisná šířka: 62-40N, zeměpisná délka: 029-38E, výška: 119 m

Aktuální stav počasí

Zpráva byla vytvořena před 39 minutami, v 17:50 UTC
Jižní vítr 5 kt
Teplota -9°C
Vlhkost vzduchu 92%
Tlak 1011 hPa
Viditelnost 10 km a více

METAR: EFJO 181750Z AUTO 18005KT 9999 NCD M09/M10 Q1011

Čas: 20:29 (18:29 UTC)

Předpověď počasí

Zpráva byla vytvořena před 4 hodinami a 2 minutami, v 14:27 UTC
Předpověď platná od 18 v 15 UTC do 18 v 18 UTC
Jihozápadní vítr 3 kt
Viditelnost 10 km a více
Polojasno ve výšce 500 ft
Oblačno až skoro zataženo ve výšce 2000 ft
Dočasný
od 18 v 15 UTC do 18 v 18 UTC
Oblačno až skoro zataženo ve výšce 700 ft
Pravděpodobnost 30%
od 18 v 15 UTC do 18 v 18 UTC
Viditelnost: 3000 m
Oblačno až skoro zataženo ve výšce 400 ft
kouřmo

TAF: EFJO 181427Z 1815/1818 23003KT 9999 SCT005 BKN020 TEMPO 1815/1818 BKN007 PROB30 1815/1818 3000 BR BKN004

Stav a předpovědi počasí z více než 4 000 letišť (zprávy METAR a TAF).

Červené a žluté tečky na mapě představují dostupné meteorologické stanice.

Když kurzor umístíte na tečku, zobrazí se název stanice.

Pak kliknutím zobrazíte stav a předpověď počasí.

Chcete-li změnit mapu, kliknutím na zelené tlačítko se znaménkem +mapu přiblížíte, kliknutím na zelené tlačítko se znaménkem – mapu oddálíte a kliknutím na zelené šipky přejdete na sousední mapy.


METAR-TAF: